Time;durP1;ratioP1;P1;durP2;ratioP2;P2;SDS_P1;SDS_P2;PMS_P1;PMS_P2;Temp;Humidity;BMP_temperature;BMP_pressure;BME280_temperature;BME280_humidity;BME280_pressure;Samples;Min_cycle;Max_cycle;Signal;HPM_P1;HPM_P2
2024/01/07 00:01:56;;;;;;;;;;;0.20;99.90;;;;;;5118729;27;20028;-76
2024/01/07 00:04:23;;;;;;;;;;;-0.10;99.90;;;;;;5119847;27;20012;-76
2024/01/07 00:06:49;;;;;;;;;;;-0.10;99.90;;;;;;5119253;27;20381;-76
2024/01/07 00:09:15;;;;;;;;;;;-0.10;99.90;;;;;;5106210;27;19930;-75
2024/01/07 00:11:41;;;;;;;;;;;1.20;99.90;;;;;;5106191;27;19992;-77
2024/01/07 00:14:07;;;;;;;;;;;-0.10;99.90;;;;;;5122666;27;21317;-76
2024/01/07 00:16:32;;;;;;;;;;;0.60;99.90;;;;;;5125027;27;19927;-76
2024/01/07 00:18:58;;;;;;;;;;;0.00;99.90;;;;;;5142273;27;20016;-76
2024/01/07 00:21:24;;;;;;;;;;;1.20;99.90;;;;;;5123003;27;19927;-75
2024/01/07 00:23:50;;;;;;;;;;;2.00;99.90;;;;;;5125116;27;19958;-76
2024/01/07 00:26:15;;;;;;;;;;;0.00;99.90;;;;;;5105946;27;20019;-76
2024/01/07 00:28:45;;;;;;;;;;;-0.10;99.90;;;;;;5142461;27;19972;-77
2024/01/07 00:31:12;;;;;;;;;;;1.10;99.90;;;;;;5123485;27;20067;-77
2024/01/07 00:33:37;;;;;;;;;;;0.00;99.90;;;;;;5105606;27;19931;-76
2024/01/07 00:36:03;;;;;;;;;;;0.00;99.90;;;;;;5125227;27;19950;-76
2024/01/07 00:38:28;;;;;;;;;;;0.00;99.90;;;;;;5142737;27;19927;-76
2024/01/07 00:40:54;;;;;;;;;;;0.10;99.90;;;;;;5123125;27;19936;-76
2024/01/07 00:43:20;;;;;;;;;;;0.40;99.90;;;;;;5107344;27;20007;-77
2024/01/07 00:45:47;;;;;;;;;;;0.80;99.90;;;;;;5122150;27;20021;-76
2024/01/07 00:48:13;;;;;;;;;;;0.10;99.90;;;;;;5121800;27;20280;-76
2024/01/07 00:50:42;;;;;;;;;;;0.10;99.90;;;;;;5123130;27;20266;-76
2024/01/07 00:53:08;;;;;;;;;;;0.30;99.90;;;;;;5123073;27;19937;-76
2024/01/07 00:55:35;;;;;;;;;;;0.00;99.90;;;;;;5124141;27;19931;-76
2024/01/07 00:58:01;;;;;;;;;;;0.40;99.90;;;;;;5106546;27;19923;-76
2024/01/07 01:00:27;;;;;;;;;;;1.20;99.90;;;;;;5120317;27;19931;-79
2024/01/07 01:02:53;;;;;;;;;;;0.10;99.90;;;;;;5123851;27;19934;-77
2024/01/07 01:05:18;;;;;;;;;;;0.20;99.90;;;;;;5121989;27;19927;-76
2024/01/07 01:07:44;;;;;;;;;;;0.10;99.90;;;;;;5123814;27;20521;-77
2024/01/07 01:10:10;;;;;;;;;;;0.10;99.90;;;;;;5121147;27;19926;-76
2024/01/07 01:12:35;;;;;;;;;;;0.10;99.90;;;;;;5123421;27;19931;-76
2024/01/07 01:15:01;;;;;;;;;;;0.10;99.90;;;;;;5120707;27;19920;-77
2024/01/07 01:17:26;;;;;;;;;;;0.50;99.90;;;;;;5122035;27;19958;-77
2024/01/07 01:19:52;;;;;;;;;;;0.20;99.90;;;;;;5123990;27;19923;-78
2024/01/07 01:22:18;;;;;;;;;;;0.20;99.90;;;;;;5122870;27;20263;-77
2024/01/07 01:24:45;;;;;;;;;;;0.20;99.90;;;;;;5144867;27;19970;-78
2024/01/07 01:27:12;;;;;;;;;;;0.20;99.90;;;;;;5122588;27;20317;-77
2024/01/07 01:29:37;;;;;;;;;;;0.60;99.90;;;;;;5126180;27;20389;-77
2024/01/07 01:32:03;;;;;;;;;;;0.20;99.90;;;;;;5123833;27;19927;-78
2024/01/07 01:34:29;;;;;;;;;;;0.20;99.90;;;;;;5109549;27;20592;-77
2024/01/07 01:36:54;;;;;;;;;;;0.20;99.90;;;;;;5125511;27;19935;-76
2024/01/07 01:39:20;;;;;;;;;;;0.20;99.90;;;;;;5124628;27;19923;-76
2024/01/07 01:41:45;;;;;;;;;;;0.50;99.90;;;;;;5122398;27;19927;-78
2024/01/07 01:44:11;;;;;;;;;;;0.90;99.90;;;;;;5107310;27;19923;-77
2024/01/07 01:46:37;;;;;;;;;;;0.40;99.90;;;;;;5106862;27;20019;-77
2024/01/07 01:49:02;;;;;;;;;;;0.10;99.90;;;;;;5122139;27;19933;-76
2024/01/07 01:51:28;;;;;;;;;;;0.10;99.90;;;;;;5122942;27;19923;-78
2024/01/07 01:53:54;;;;;;;;;;;0.90;99.90;;;;;;5125313;27;20044;-78
2024/01/07 01:56:20;;;;;;;;;;;0.10;99.90;;;;;;5105069;27;19995;-77
2024/01/07 01:58:46;;;;;;;;;;;0.10;99.90;;;;;;5105289;27;19931;-76
2024/01/07 02:01:13;;;;;;;;;;;0.00;99.90;;;;;;5118107;27;21157;-77
2024/01/07 02:03:39;;;;;;;;;;;0.10;99.90;;;;;;5106419;27;20342;-77
2024/01/07 02:06:05;;;;;;;;;;;0.10;99.90;;;;;;5107143;27;19927;-76
2024/01/07 02:08:31;;;;;;;;;;;0.10;99.90;;;;;;5137771;27;19937;-77
2024/01/07 02:10:57;;;;;;;;;;;0.50;99.90;;;;;;5089667;27;20361;-78
2024/01/07 02:13:23;;;;;;;;;;;1.40;99.90;;;;;;5123210;27;19972;-77
2024/01/07 02:15:48;;;;;;;;;;;0.00;99.90;;;;;;5122308;27;19931;-77
2024/01/07 02:18:14;;;;;;;;;;;1.60;99.90;;;;;;5121592;27;19930;-77
2024/01/07 02:20:40;;;;;;;;;;;0.10;99.90;;;;;;5123178;27;19970;-77
2024/01/07 02:23:05;;;;;;;;;;;0.20;99.90;;;;;;5107793;27;20275;-77
2024/01/07 02:25:35;;;;;;;;;;;0.40;99.90;;;;;;5107580;27;19990;-76
2024/01/07 02:28:07;;;;;;;;;;;0.10;99.90;;;;;;5121371;27;19930;-77
2024/01/07 02:30:33;;;;;;;;;;;0.00;99.90;;;;;;5121549;27;19957;-77
2024/01/07 02:33:01;;;;;;;;;;;1.80;99.90;;;;;;5120440;27;19927;-77
2024/01/07 02:35:26;;;;;;;;;;;-0.10;99.90;;;;;;5122306;27;20389;-76
2024/01/07 02:37:52;;;;;;;;;;;-0.10;99.90;;;;;;5124131;27;19943;-77
2024/01/07 02:40:18;;;;;;;;;;;-0.10;99.90;;;;;;5116394;27;19935;-76
2024/01/07 02:42:43;;;;;;;;;;;0.80;99.90;;;;;;5122008;27;20380;-78
2024/01/07 02:45:09;;;;;;;;;;;0.20;99.90;;;;;;5106377;27;19971;-76
2024/01/07 02:47:40;;;;;;;;;;;-0.10;99.90;;;;;;5120952;27;19934;-78
2024/01/07 02:50:12;;;;;;;;;;;-0.10;99.90;;;;;;5123438;27;19971;-76
2024/01/07 02:52:37;;;;;;;;;;;-0.10;99.90;;;;;;5121998;27;20276;-77
2024/01/07 02:55:03;;;;;;;;;;;-0.10;99.90;;;;;;5141188;27;19966;-77
2024/01/07 02:57:28;;;;;;;;;;;-0.10;99.90;;;;;;5121161;27;19927;-77
2024/01/07 02:59:54;;;;;;;;;;;-0.20;99.90;;;;;;5103501;27;19979;-77
2024/01/07 03:02:20;;;;;;;;;;;0.10;99.90;;;;;;5119228;27;20385;-77
2024/01/07 03:04:45;;;;;;;;;;;0.00;99.90;;;;;;5119336;27;20039;-77
2024/01/07 03:07:11;;;;;;;;;;;-0.20;99.90;;;;;;5119091;27;20634;-77
2024/01/07 03:09:37;;;;;;;;;;;-0.20;99.90;;;;;;5118895;27;20433;-76
2024/01/07 03:12:02;;;;;;;;;;;-0.30;99.90;;;;;;5104873;27;20350;-77
2024/01/07 03:14:28;;;;;;;;;;;-0.30;99.90;;;;;;5117888;27;19970;-75
2024/01/07 03:16:53;;;;;;;;;;;0.40;99.90;;;;;;5101918;27;20021;-77
2024/01/07 03:19:20;;;;;;;;;;;-0.30;99.90;;;;;;5121089;27;20460;-77
2024/01/07 03:21:46;;;;;;;;;;;-0.30;99.90;;;;;;5107188;27;20485;-78
2024/01/07 03:24:11;;;;;;;;;;;0.10;99.90;;;;;;5123252;27;19941;-77
2024/01/07 03:26:38;;;;;;;;;;;1.10;99.90;;;;;;5087283;27;20031;-77
2024/01/07 03:29:06;;;;;;;;;;;-0.30;99.90;;;;;;5120282;27;22318;-77
2024/01/07 03:31:32;;;;;;;;;;;0.20;99.90;;;;;;5121915;27;19974;-76
2024/01/07 03:33:57;;;;;;;;;;;-0.40;99.90;;;;;;5095799;27;19991;-75
2024/01/07 03:36:23;;;;;;;;;;;0.80;99.90;;;;;;5118874;27;20023;-77
2024/01/07 03:38:48;;;;;;;;;;;-0.40;99.90;;;;;;5118380;27;19930;-77
2024/01/07 03:41:18;;;;;;;;;;;-0.10;99.90;;;;;;5120235;27;19931;-77
2024/01/07 03:43:44;;;;;;;;;;;-0.40;99.90;;;;;;5118785;27;19962;-77
2024/01/07 03:46:09;;;;;;;;;;;-0.30;99.90;;;;;;5117514;27;20006;-78
2024/01/07 03:48:35;;;;;;;;;;;-0.20;99.90;;;;;;5118736;27;19927;-77
2024/01/07 03:51:01;;;;;;;;;;;-0.40;99.90;;;;;;5121087;27;19927;-76
2024/01/07 03:53:26;;;;;;;;;;;0.30;99.90;;;;;;5137167;27;20353;-76
2024/01/07 03:55:52;;;;;;;;;;;-0.40;99.90;;;;;;5086332;27;20733;-76
2024/01/07 03:58:17;;;;;;;;;;;-0.40;99.90;;;;;;5099815;27;19931;-77
2024/01/07 04:00:43;;;;;;;;;;;-0.30;99.90;;;;;;5109407;27;20477;-77
2024/01/07 04:03:09;;;;;;;;;;;-0.30;99.90;;;;;;5121124;27;20014;-76
2024/01/07 04:05:36;;;;;;;;;;;-0.30;99.90;;;;;;5121125;27;19935;-76
2024/01/07 04:08:02;;;;;;;;;;;0.20;99.90;;;;;;5117977;27;19930;-76
2024/01/07 04:10:28;;;;;;;;;;;-0.20;99.90;;;;;;5117854;27;20627;-76
2024/01/07 04:12:59;;;;;;;;;;;-0.20;99.90;;;;;;5114688;27;20280;-76
2024/01/07 04:15:25;;;;;;;;;;;-0.20;99.90;;;;;;5120706;27;19931;-77
2024/01/07 04:17:50;;;;;;;;;;;1.40;99.90;;;;;;5102866;27;19931;-77
2024/01/07 04:20:16;;;;;;;;;;;-0.20;99.90;;;;;;5138526;27;19970;-76
2024/01/07 04:22:42;;;;;;;;;;;-0.20;99.90;;;;;;5115169;27;19938;-76
2024/01/07 04:25:08;;;;;;;;;;;-0.10;99.90;;;;;;5105104;27;19927;-77
2024/01/07 04:27:37;;;;;;;;;;;-0.10;99.90;;;;;;5109963;27;20288;-76
2024/01/07 04:30:04;;;;;;;;;;;0.00;99.90;;;;;;5105973;27;19931;-76
2024/01/07 04:32:30;;;;;;;;;;;0.00;99.90;;;;;;5135515;27;20351;-76
2024/01/07 04:35:00;;;;;;;;;;;-0.10;99.90;;;;;;5120568;27;19931;-77
2024/01/07 04:37:25;;;;;;;;;;;0.00;99.90;;;;;;5119194;27;19934;-77
2024/01/07 04:39:51;;;;;;;;;;;1.30;99.90;;;;;;5101594;27;19931;-77
2024/01/07 04:42:17;;;;;;;;;;;0.00;99.90;;;;;;5117346;27;19938;-77
2024/01/07 04:44:43;;;;;;;;;;;-0.10;99.90;;;;;;5117472;27;19927;-77
2024/01/07 04:47:28;;;;;;;;;;;0.70;99.90;;;;;;5112728;27;19931;-76
2024/01/07 04:49:54;;;;;;;;;;;0.00;99.90;;;;;;5120182;27;19931;-77
2024/01/07 04:52:19;;;;;;;;;;;0.00;99.90;;;;;;5120983;27;19931;-76
2024/01/07 04:54:45;;;;;;;;;;;0.00;99.90;;;;;;5105385;27;19930;-76
2024/01/07 04:57:11;;;;;;;;;;;0.00;99.90;;;;;;5111785;27;19927;-76
2024/01/07 04:59:37;;;;;;;;;;;0.10;99.90;;;;;;5105596;27;20449;-76
2024/01/07 05:02:03;;;;;;;;;;;0.60;99.90;;;;;;5124420;27;19945;-76
2024/01/07 05:04:28;;;;;;;;;;;0.00;99.90;;;;;;5143123;27;20851;-76
2024/01/07 05:06:54;;;;;;;;;;;0.10;99.90;;;;;;5129407;27;19931;-76
2024/01/07 05:09:20;;;;;;;;;;;0.50;99.90;;;;;;5142432;27;19931;-77
2024/01/07 05:11:45;;;;;;;;;;;0.10;99.90;;;;;;5109501;27;19923;-77
2024/01/07 05:14:11;;;;;;;;;;;0.00;99.90;;;;;;5142193;27;20002;-76
2024/01/07 05:16:37;;;;;;;;;;;0.70;99.90;;;;;;5123138;27;19955;-75
2024/01/07 05:19:03;;;;;;;;;;;0.00;99.90;;;;;;5125728;27;19931;-76
2024/01/07 05:21:29;;;;;;;;;;;0.00;99.90;;;;;;5124937;27;20393;-76
2024/01/07 05:23:54;;;;;;;;;;;1.00;99.90;;;;;;5122356;27;19962;-76
2024/01/07 05:26:20;;;;;;;;;;;1.00;99.90;;;;;;5128480;27;19927;-76
2024/01/07 05:28:46;;;;;;;;;;;0.10;99.90;;;;;;5106060;27;19923;-75
2024/01/07 05:31:15;;;;;;;;;;;0.10;99.90;;;;;;5107667;27;19934;-76
2024/01/07 05:33:41;;;;;;;;;;;0.10;99.90;;;;;;5122807;27;19931;-76
2024/01/07 05:36:07;;;;;;;;;;;0.10;99.90;;;;;;5106475;27;19923;-76
2024/01/07 05:38:33;;;;;;;;;;;0.10;99.90;;;;;;5109143;27;19979;-76
2024/01/07 05:40:58;;;;;;;;;;;1.30;99.90;;;;;;5125474;27;19931;-76
2024/01/07 05:43:24;;;;;;;;;;;1.00;99.90;;;;;;5125686;27;19934;-75
2024/01/07 05:45:50;;;;;;;;;;;0.00;99.90;;;;;;5105012;27;20365;-76
2024/01/07 05:48:15;;;;;;;;;;;0.00;99.90;;;;;;5122752;27;19927;-75
2024/01/07 05:50:41;;;;;;;;;;;0.10;99.90;;;;;;5124704;27;20169;-74
2024/01/07 05:53:07;;;;;;;;;;;0.10;99.90;;;;;;5115863;27;19931;-76
2024/01/07 05:55:33;;;;;;;;;;;0.90;99.90;;;;;;5144013;27;19930;-75
2024/01/07 05:57:58;;;;;;;;;;;0.10;99.90;;;;;;5129481;27;19934;-76
2024/01/07 06:00:24;;;;;;;;;;;0.10;99.90;;;;;;5125292;27;19923;-76
2024/01/07 06:02:49;;;;;;;;;;;0.00;99.90;;;;;;5100200;27;19972;-76
2024/01/07 06:05:15;;;;;;;;;;;0.10;99.90;;;;;;5124521;27;20410;-77
2024/01/07 06:07:41;;;;;;;;;;;0.10;99.90;;;;;;5124538;27;20392;-75
2024/01/07 06:10:07;;;;;;;;;;;0.20;99.90;;;;;;5139426;27;19962;-76
2024/01/07 06:12:32;;;;;;;;;;;0.20;99.90;;;;;;5107790;27;19966;-74
2024/01/07 06:14:58;;;;;;;;;;;1.40;99.90;;;;;;5120881;27;20383;-74
2024/01/07 06:17:23;;;;;;;;;;;0.30;99.90;;;;;;5120864;27;19938;-75
2024/01/07 06:19:49;;;;;;;;;;;0.10;99.90;;;;;;5091236;27;19927;-78
2024/01/07 06:22:16;;;;;;;;;;;0.20;99.90;;;;;;5107672;27;19923;-77
2024/01/07 06:24:43;;;;;;;;;;;0.00;99.90;;;;;;5124625;27;20082;-76
2024/01/07 06:27:08;;;;;;;;;;;0.10;99.90;;;;;;5126716;27;19938;-76
2024/01/07 06:29:40;;;;;;;;;;;0.10;99.90;;;;;;5124303;27;20031;-77
2024/01/07 06:32:05;;;;;;;;;;;0.40;99.90;;;;;;5126684;27;20215;-77
2024/01/07 06:34:32;;;;;;;;;;;0.20;99.90;;;;;;5121560;27;19930;-77
2024/01/07 06:36:58;;;;;;;;;;;0.20;99.90;;;;;;5125818;27;19923;-77
2024/01/07 06:39:26;;;;;;;;;;;0.10;99.90;;;;;;5108098;27;19933;-76
2024/01/07 06:41:52;;;;;;;;;;;0.20;99.90;;;;;;5125592;27;19927;-77
2024/01/07 06:44:18;;;;;;;;;;;0.20;99.90;;;;;;5124042;27;19931;-78
2024/01/07 06:46:44;;;;;;;;;;;1.90;99.90;;;;;;5109785;27;21040;-77
2024/01/07 06:49:10;;;;;;;;;;;0.10;99.90;;;;;;5125867;27;19980;-76
2024/01/07 06:51:37;;;;;;;;;;;0.10;99.90;;;;;;5126310;27;20373;-77
2024/01/07 06:54:02;;;;;;;;;;;0.50;99.90;;;;;;5108675;27;19931;-74
2024/01/07 06:56:28;;;;;;;;;;;0.00;99.90;;;;;;5125825;27;20548;-78
2024/01/07 06:58:53;;;;;;;;;;;1.40;99.90;;;;;;5123632;27;20501;-79
2024/01/07 07:01:20;;;;;;;;;;;0.90;99.90;;;;;;5126024;27;19931;-80
2024/01/07 07:03:45;;;;;;;;;;;0.00;99.20;;;;;;5125271;27;19937;-80
2024/01/07 07:06:12;;;;;;;;;;;0.30;99.40;;;;;;5125602;27;20010;-79
2024/01/07 07:08:38;;;;;;;;;;;0.20;99.20;;;;;;5108309;27;19964;-78
2024/01/07 07:11:04;;;;;;;;;;;0.20;99.20;;;;;;5126366;27;20019;-79
2024/01/07 07:13:29;;;;;;;;;;;1.60;98.90;;;;;;5108033;27;19923;-79
2024/01/07 07:15:55;;;;;;;;;;;0.70;98.40;;;;;;5123498;27;20026;-75
2024/01/07 07:18:21;;;;;;;;;;;2.10;98.70;;;;;;5121918;27;19931;-77
2024/01/07 07:20:47;;;;;;;;;;;0.90;97.80;;;;;;5106843;27;20023;-74
2024/01/07 07:23:13;;;;;;;;;;;0.00;97.50;;;;;;5123436;27;19927;-76
2024/01/07 07:25:39;;;;;;;;;;;1.30;98.40;;;;;;5106040;27;19931;-76
2024/01/07 07:28:04;;;;;;;;;;;0.30;98.30;;;;;;5123380;27;19923;-77
2024/01/07 07:30:30;;;;;;;;;;;0.10;98.30;;;;;;5121830;27;20358;-76
2024/01/07 07:32:56;;;;;;;;;;;0.10;98.10;;;;;;5122489;27;20370;-76
2024/01/07 07:35:21;;;;;;;;;;;0.10;98.30;;;;;;5118902;27;19970;-79
2024/01/07 07:37:47;;;;;;;;;;;0.20;98.40;;;;;;5121007;27;20006;-79
2024/01/07 07:40:12;;;;;;;;;;;0.90;98.30;;;;;;5121883;27;19933;-79
2024/01/07 07:42:38;;;;;;;;;;;0.00;98.00;;;;;;5123774;27;19934;-78
2024/01/07 07:45:04;;;;;;;;;;;0.90;98.30;;;;;;5104635;27;20017;-76
2024/01/07 07:47:30;;;;;;;;;;;0.00;98.10;;;;;;5086994;27;21819;-78
2024/01/07 07:49:56;;;;;;;;;;;0.10;98.20;;;;;;5118983;27;20058;-78
2024/01/07 07:52:25;;;;;;;;;;;0.10;98.30;;;;;;5123510;27;19937;-77
2024/01/07 07:54:54;;;;;;;;;;;2.10;98.50;;;;;;5123231;27;20378;-77
2024/01/07 07:57:25;;;;;;;;;;;0.10;98.20;;;;;;5137397;27;20326;-77
2024/01/07 07:59:50;;;;;;;;;;;0.00;98.20;;;;;;5118846;27;19961;-75
2024/01/07 08:02:16;;;;;;;;;;;0.10;98.70;;;;;;5117044;27;19959;-75
2024/01/07 08:04:42;;;;;;;;;;;0.50;98.50;;;;;;5137922;27;19931;-77
2024/01/07 08:07:10;;;;;;;;;;;0.30;98.50;;;;;;5120543;27;19930;-76
2024/01/07 08:09:42;;;;;;;;;;;0.10;99.30;;;;;;5136682;27;19938;-74
2024/01/07 08:12:07;;;;;;;;;;;0.10;98.80;;;;;;5119138;27;19927;-74
2024/01/07 08:14:33;;;;;;;;;;;0.30;98.40;;;;;;5137324;27;19927;-73
2024/01/07 08:17:03;;;;;;;;;;;-0.10;97.70;;;;;;5137541;27;19924;-74
2024/01/07 08:19:28;;;;;;;;;;;-0.10;97.00;;;;;;5118227;27;20391;-74
2024/01/07 08:21:56;;;;;;;;;;;0.40;97.20;;;;;;5120256;27;19927;-74
2024/01/07 08:24:22;;;;;;;;;;;-0.50;97.10;;;;;;5117987;27;20265;-74
2024/01/07 08:26:47;;;;;;;;;;;0.00;97.40;;;;;;5102222;27;19930;-74
2024/01/07 08:29:13;;;;;;;;;;;0.10;97.40;;;;;;5119943;27;20083;-74
2024/01/07 08:31:39;;;;;;;;;;;0.10;97.40;;;;;;5101327;27;19975;-74
2024/01/07 08:34:05;;;;;;;;;;;-0.10;97.30;;;;;;5107672;27;19931;-75
2024/01/07 08:36:30;;;;;;;;;;;0.10;97.40;;;;;;5122002;27;21647;-75
2024/01/07 08:38:56;;;;;;;;;;;-0.20;97.30;;;;;;5104927;27;19923;-75
2024/01/07 08:41:21;;;;;;;;;;;0.50;97.50;;;;;;5105100;27;20408;-73
2024/01/07 08:43:47;;;;;;;;;;;-0.40;97.30;;;;;;5106282;27;19931;-74
2024/01/07 08:46:13;;;;;;;;;;;0.20;97.60;;;;;;5126464;27;19931;-74
2024/01/07 08:48:39;;;;;;;;;;;0.70;97.60;;;;;;5106662;27;19923;-74
2024/01/07 08:51:08;;;;;;;;;;;-0.50;97.50;;;;;;5144312;27;19938;-75
2024/01/07 08:53:35;;;;;;;;;;;-0.50;97.60;;;;;;5127297;27;19923;-75
2024/01/07 08:56:00;;;;;;;;;;;2.10;98.60;;;;;;5130738;27;19999;-75
2024/01/07 08:58:26;;;;;;;;;;;0.70;98.70;;;;;;5128313;27;19923;-75
2024/01/07 09:00:52;;;;;;;;;;;1.50;99.00;;;;;;5125965;27;19923;-76
2024/01/07 09:03:18;;;;;;;;;;;2.30;95.10;;;;;;5147345;27;19950;-75
2024/01/07 09:05:44;;;;;;;;;;;3.00;99.90;;;;;;5128872;27;19978;-74
2024/01/07 09:08:11;;;;;;;;;;;3.70;99.90;;;;;;5126991;27;20022;-74
2024/01/07 09:10:36;;;;;;;;;;;4.00;99.90;;;;;;5126103;27;20014;-75
2024/01/07 09:13:05;;;;;;;;;;;4.10;99.90;;;;;;5125885;27;20507;-75
2024/01/07 09:15:30;;;;;;;;;;;3.70;99.90;;;;;;5128188;27;19938;-75
2024/01/07 09:17:56;;;;;;;;;;;3.60;99.90;;;;;;5129884;27;19928;-75
2024/01/07 09:20:22;;;;;;;;;;;2.10;99.90;;;;;;5127729;27;19958;-75
2024/01/07 09:22:48;;;;;;;;;;;3.60;99.90;;;;;;5128461;27;19927;-75
2024/01/07 09:25:13;;;;;;;;;;;2.60;99.90;;;;;;5126637;27;19976;-75
2024/01/07 09:27:39;;;;;;;;;;;2.60;76.30;;;;;;5110176;27;19936;-75
2024/01/07 09:30:05;;;;;;;;;;;2.50;79.00;;;;;;5112373;27;19972;-75
2024/01/07 09:32:31;;;;;;;;;;;1.10;81.90;;;;;;5127583;27;20381;-75
2024/01/07 09:34:57;;;;;;;;;;;0.90;83.60;;;;;;5124879;27;19981;-74
2024/01/07 09:37:23;;;;;;;;;;;0.70;86.20;;;;;;5142558;27;19923;-74
2024/01/07 09:39:49;;;;;;;;;;;0.60;87.40;;;;;;5125376;27;19923;-74
2024/01/07 09:42:15;;;;;;;;;;;0.50;89.80;;;;;;5144648;27;19927;-74
2024/01/07 09:44:44;;;;;;;;;;;0.60;90.40;;;;;;5127158;27;19927;-73
2024/01/07 09:47:11;;;;;;;;;;;0.60;90.60;;;;;;5125291;27;19930;-74
2024/01/07 09:49:38;;;;;;;;;;;0.40;90.90;;;;;;5125183;27;20183;-76
2024/01/07 09:52:04;;;;;;;;;;;0.40;91.70;;;;;;5123365;27;19927;-76
2024/01/07 09:54:30;;;;;;;;;;;0.30;91.70;;;;;;5106608;27;20026;-75
2024/01/07 09:56:58;;;;;;;;;;;1.40;92.40;;;;;;5110948;27;20014;-74
2024/01/07 09:59:24;;;;;;;;;;;1.00;92.70;;;;;;5125260;27;19976;-74
2024/01/07 10:01:50;;;;;;;;;;;0.50;92.40;;;;;;5108316;27;19931;-75
2024/01/07 10:04:16;;;;;;;;;;;0.40;92.50;;;;;;5127659;27;19970;-74
2024/01/07 10:06:41;;;;;;;;;;;0.50;92.40;;;;;;5112731;27;19927;-74
2024/01/07 10:09:07;;;;;;;;;;;0.50;92.40;;;;;;5129102;27;19931;-75
2024/01/07 10:11:33;;;;;;;;;;;1.50;93.50;;;;;;5127758;27;19943;-75
2024/01/07 10:14:05;;;;;;;;;;;0.40;93.20;;;;;;5128852;27;20008;-75
2024/01/07 10:16:36;;;;;;;;;;;0.30;93.30;;;;;;5145760;27;19972;-75
2024/01/07 10:19:01;;;;;;;;;;;0.60;93.70;;;;;;5127393;27;19927;-75
2024/01/07 10:21:27;;;;;;;;;;;0.20;93.40;;;;;;5129862;27;19938;-76
2024/01/07 10:24:12;;;;;;;;;;;0.50;93.50;;;;;;5130588;27;19923;-75
2024/01/07 10:26:38;;;;;;;;;;;0.60;93.50;;;;;;5130767;27;19931;-75
2024/01/07 10:29:04;;;;;;;;;;;0.60;94.10;;;;;;5113810;27;19936;-76
2024/01/07 10:31:31;;;;;;;;;;;0.60;92.70;;;;;;5110816;27;20331;-75
2024/01/07 10:33:57;;;;;;;;;;;0.50;92.90;;;;;;5131190;27;19923;-75
2024/01/07 10:36:24;;;;;;;;;;;0.50;92.90;;;;;;5129823;27;19926;-75
2024/01/07 10:38:49;;;;;;;;;;;2.30;92.90;;;;;;5131223;27;19966;-76
2024/01/07 10:41:19;;;;;;;;;;;1.00;92.00;;;;;;5130324;27;20015;-75
2024/01/07 10:43:46;;;;;;;;;;;0.60;91.60;;;;;;5113434;27;19923;-76
2024/01/07 10:46:13;;;;;;;;;;;0.50;91.10;;;;;;5131828;27;19927;-76
2024/01/07 10:48:41;;;;;;;;;;;1.70;92.10;;;;;;5133942;27;20377;-75
2024/01/07 10:51:07;;;;;;;;;;;2.40;91.30;;;;;;5132099;27;19966;-75
2024/01/07 10:53:34;;;;;;;;;;;0.80;90.50;;;;;;5136613;27;19934;-75
2024/01/07 10:56:03;;;;;;;;;;;1.30;90.50;;;;;;5133922;27;19949;-76
2024/01/07 10:58:33;;;;;;;;;;;1.50;91.00;;;;;;5129593;27;19972;-75
2024/01/07 11:01:02;;;;;;;;;;;1.20;91.50;;;;;;5109080;27;19927;-76
2024/01/07 11:03:28;;;;;;;;;;;0.80;91.20;;;;;;5130939;27;20026;-74
2024/01/07 11:06:01;;;;;;;;;;;0.90;91.20;;;;;;5129903;27;20019;-76
2024/01/07 11:08:40;;;;;;;;;;;0.90;91.60;;;;;;5146374;27;19968;-76
2024/01/07 11:11:23;;;;;;;;;;;0.80;91.90;;;;;;5113597;27;19923;-76
2024/01/07 11:13:49;;;;;;;;;;;1.20;91.70;;;;;;5129194;27;19972;-76
2024/01/07 11:16:35;;;;;;;;;;;2.20;92.00;;;;;;5129004;27;19958;-76
2024/01/07 11:19:02;;;;;;;;;;;0.90;90.70;;;;;;5126863;27;20788;-76
2024/01/07 11:21:28;;;;;;;;;;;0.90;91.20;;;;;;5128682;27;19927;-76
2024/01/07 11:23:54;;;;;;;;;;;0.90;91.20;;;;;;5128834;27;20282;-76
2024/01/07 11:26:21;;;;;;;;;;;0.80;91.00;;;;;;5128888;27;19923;-76
2024/01/07 11:28:50;;;;;;;;;;;1.00;91.20;;;;;;5126697;27;20382;-76
2024/01/07 11:31:17;;;;;;;;;;;0.80;91.50;;;;;;5144424;27;19958;-76
2024/01/07 11:33:44;;;;;;;;;;;0.00;91.50;;;;;;5128484;27;20421;-76
2024/01/07 11:36:10;;;;;;;;;;;0.90;91.80;;;;;;5109105;27;19923;-76
2024/01/07 11:38:39;;;;;;;;;;;0.80;92.40;;;;;;5109310;27;20015;-76
2024/01/07 11:41:05;;;;;;;;;;;2.20;92.10;;;;;;5127163;27;19927;-75
2024/01/07 11:43:32;;;;;;;;;;;1.50;91.70;;;;;;5125995;27;19923;-76
2024/01/07 11:45:58;;;;;;;;;;;1.40;91.90;;;;;;5124398;27;19971;-75
2024/01/07 11:48:25;;;;;;;;;;;0.80;92.00;;;;;;5124378;27;20006;-75
2024/01/07 11:50:50;;;;;;;;;;;0.70;91.90;;;;;;5124726;27;19942;-76
2024/01/07 11:53:16;;;;;;;;;;;0.70;92.00;;;;;;5107354;27;19927;-76
2024/01/07 11:55:42;;;;;;;;;;;1.50;91.90;;;;;;5124398;27;19919;-76
2024/01/07 11:58:08;;;;;;;;;;;0.60;92.30;;;;;;5120103;27;20411;-76
2024/01/07 12:00:34;;;;;;;;;;;2.10;92.60;;;;;;5123472;27;19907;-76
2024/01/07 12:03:01;;;;;;;;;;;1.30;92.60;;;;;;5124979;27;19957;-76
2024/01/07 12:05:27;;;;;;;;;;;1.00;92.60;;;;;;5141044;27;19934;-75
2024/01/07 12:07:52;;;;;;;;;;;0.70;92.50;;;;;;5124361;27;19927;-76
2024/01/07 12:10:18;;;;;;;;;;;0.60;92.60;;;;;;5127202;27;20444;-76
2024/01/07 12:12:44;;;;;;;;;;;0.90;93.00;;;;;;5123681;27;20002;-76
2024/01/07 12:15:11;;;;;;;;;;;1.40;93.20;;;;;;5108279;27;19935;-76
2024/01/07 12:17:40;;;;;;;;;;;2.00;93.20;;;;;;5123346;27;19934;-76
2024/01/07 12:20:08;;;;;;;;;;;0.90;93.00;;;;;;5127842;27;19951;-75
2024/01/07 12:22:42;;;;;;;;;;;0.70;92.80;;;;;;5126576;27;19927;-76
2024/01/07 12:25:08;;;;;;;;;;;0.90;93.10;;;;;;5115436;27;19930;-76
2024/01/07 12:27:35;;;;;;;;;;;0.80;93.00;;;;;;5111790;27;19923;-75
2024/01/07 12:30:01;;;;;;;;;;;0.80;93.10;;;;;;5123476;27;20404;-76
2024/01/07 12:32:30;;;;;;;;;;;2.30;93.80;;;;;;5124374;27;19959;-76
2024/01/07 12:34:59;;;;;;;;;;;1.00;93.10;;;;;;5109344;27;19927;-76
2024/01/07 12:37:31;;;;;;;;;;;0.90;92.80;;;;;;5123833;27;19927;-76
2024/01/07 12:39:57;;;;;;;;;;;0.90;92.40;;;;;;5124303;27;19990;-76
2024/01/07 12:42:23;;;;;;;;;;;1.00;92.00;;;;;;5117774;27;20031;-76
2024/01/07 12:44:49;;;;;;;;;;;0.70;92.20;;;;;;5095890;27;20030;-76
2024/01/07 12:47:15;;;;;;;;;;;0.90;91.70;;;;;;5121981;27;20025;-76
2024/01/07 12:49:41;;;;;;;;;;;1.10;91.00;;;;;;5122190;27;19934;-76
2024/01/07 12:52:06;;;;;;;;;;;1.20;91.90;;;;;;5123268;27;19927;-76
2024/01/07 12:54:32;;;;;;;;;;;1.20;92.50;;;;;;5105521;27;20695;-76
2024/01/07 12:56:57;;;;;;;;;;;0.90;92.50;;;;;;5121148;27;19931;-75
2024/01/07 12:59:23;;;;;;;;;;;0.70;92.60;;;;;;5119762;27;19935;-76
2024/01/07 13:01:50;;;;;;;;;;;2.20;93.30;;;;;;5122373;27;19931;-75
2024/01/07 13:04:16;;;;;;;;;;;1.50;93.20;;;;;;5119800;27;19931;-75
2024/01/07 13:06:42;;;;;;;;;;;0.70;93.30;;;;;;5120419;27;20285;-76
2024/01/07 13:09:09;;;;;;;;;;;0.80;93.60;;;;;;5122228;27;19931;-76
2024/01/07 13:11:34;;;;;;;;;;;2.30;94.00;;;;;;5107877;27;21819;-75
2024/01/07 13:14:01;;;;;;;;;;;2.40;94.20;;;;;;5107099;27;19923;-75
2024/01/07 13:16:30;;;;;;;;;;;0.90;94.10;;;;;;5122371;27;19927;-76
2024/01/07 13:18:55;;;;;;;;;;;0.60;94.00;;;;;;5106357;27;19930;-76
2024/01/07 13:21:22;;;;;;;;;;;1.20;94.00;;;;;;5127929;27;19927;-75
2024/01/07 13:23:48;;;;;;;;;;;0.70;92.70;;;;;;5124272;27;19938;-75
2024/01/07 13:26:14;;;;;;;;;;;0.60;92.90;;;;;;5124750;27;19923;-80
2024/01/07 13:28:39;;;;;;;;;;;1.90;93.40;;;;;;5108099;27;20267;-76
2024/01/07 13:31:06;;;;;;;;;;;0.70;93.40;;;;;;5110700;27;19927;-77
2024/01/07 13:33:32;;;;;;;;;;;1.30;93.20;;;;;;5109278;27;19927;-76
2024/01/07 13:35:58;;;;;;;;;;;0.60;92.90;;;;;;5141728;27;19927;-81
2024/01/07 13:38:23;;;;;;;;;;;2.00;93.80;;;;;;5125656;27;19972;-80
2024/01/07 13:40:49;;;;;;;;;;;1.70;94.20;;;;;;5123183;27;20282;-78
2024/01/07 13:43:15;;;;;;;;;;;0.90;94.20;;;;;;5141512;27;20732;-81
2024/01/07 13:45:40;;;;;;;;;;;0.60;94.20;;;;;;5143490;27;19987;-80
2024/01/07 13:48:07;;;;;;;;;;;1.10;94.10;;;;;;5143493;27;19931;-77
2024/01/07 13:50:33;;;;;;;;;;;0.60;93.80;;;;;;5119398;27;19927;-76
2024/01/07 13:52:58;;;;;;;;;;;0.60;93.50;;;;;;5104832;27;19964;-76
2024/01/07 13:55:24;;;;;;;;;;;0.80;93.40;;;;;;5121980;27;19945;-76
2024/01/07 13:57:50;;;;;;;;;;;2.10;93.60;;;;;;5109455;27;19966;-76
2024/01/07 14:00:18;;;;;;;;;;;1.10;93.00;;;;;;5143198;27;19923;-76
2024/01/07 14:02:45;;;;;;;;;;;0.70;92.90;;;;;;5114408;27;19959;-77
2024/01/07 14:05:11;;;;;;;;;;;0.80;93.10;;;;;;5126032;27;19975;-76
2024/01/07 14:07:41;;;;;;;;;;;0.50;93.30;;;;;;5123857;27;20405;-76
2024/01/07 14:10:08;;;;;;;;;;;0.70;93.30;;;;;;5122557;27;19927;-75
2024/01/07 14:12:34;;;;;;;;;;;0.40;93.50;;;;;;5123530;27;19924;-76
2024/01/07 14:14:59;;;;;;;;;;;1.20;93.80;;;;;;5110424;27;19923;-76
2024/01/07 14:17:25;;;;;;;;;;;1.80;94.20;;;;;;5113296;27;20016;-76
2024/01/07 14:19:53;;;;;;;;;;;0.60;94.10;;;;;;5123610;27;20814;-76
2024/01/07 14:22:22;;;;;;;;;;;0.50;94.20;;;;;;5123275;27;19971;-76
2024/01/07 14:24:48;;;;;;;;;;;1.10;94.70;;;;;;5124570;27;21048;-77